Boyd, Wisconsin
Current Conditions -  °F | °C
As of 6:56 AM on Sunday 23 Nov 2014 (Local Time) from KEAU Reporting Station
Haze Haze  
Wind Chill: 43°   Ceiling: 800
Heat Index: 47°   Visibility: 6mi
Dew Point: 46°   Wind: 9mph
Humidity: 97%   Direction: 170°S
Pressure: 29.49"   Gusts: NA
Location:  44.95°N, 91.03°W
Report Text: KEAU 231256Z 17008KT 6SM BR BKN008 OVC013 08/08 A2949 RMK AO2 CIG 005V011 SLP992 T00830078
Loading
Personal Weather Stations






























Interactive Weather Map New forecast layout! Learn more

10-Day Weather Forecast

Advertisements
Track Severe Weather on mobile